Kinuso, Canada
Current Conditions -  °F | °C
As of 4:00 PM on Thursday 18 Dec 2014 (Local Time) from CYZH Reporting Station
Haze Haze  
Wind Chill:   Ceiling: Unl
Heat Index: 12°   Visibility: 3mi
Dew Point: 10°   Wind: 7mph
Humidity: 92%   Direction: 120°ESE
Pressure: 29.82"   Gusts: NA
Location:  55.33°N, 115.43°W
Report Text: CYZH 182300Z AUTO 12006KT 3SM BR CLR M11/M12 A2982 RMK SLP146
Loading
Personal Weather Stations






























Interactive Weather Map New forecast layout! Learn more

10-Day Weather Forecast

Advertisements
Track Severe Weather on mobile